Time;durP1;ratioP1;P1;durP2;ratioP2;P2;SDS_P1;SDS_P2;PMS_P1;PMS_P2;Temp;Humidity;BMP_temperature;BMP_pressure;BME280_temperature;BME280_humidity;BME280_pressure;Samples;Min_cycle;Max_cycle;Signal;HPM_P1;HPM_P2
2020/12/13 00:00:09;;;;;;;67.07;39.77;;;3.70;99.90;;;;;;5008729;28;20481;-50
2020/12/13 00:02:38;;;;;;;62.17;36.73;;;3.80;99.90;;;;;;5006240;28;20823;-49
2020/12/13 00:05:06;;;;;;;67.50;37.57;;;3.80;99.90;;;;;;5005898;28;20480;-49
2020/12/13 00:07:34;;;;;;;66.83;37.57;;;3.80;99.90;;;;;;5004394;28;20496;-49
2020/12/13 00:10:02;;;;;;;67.83;37.93;;;3.80;99.90;;;;;;5011850;28;20493;-49
2020/12/13 00:12:30;;;;;;;63.90;36.67;;;3.80;99.90;;;;;;5020592;28;20887;-48
2020/12/13 00:14:58;;;;;;;66.87;36.80;;;3.80;99.90;;;;;;5025565;28;20508;-49
2020/12/13 00:17:25;;;;;;;68.97;37.93;;;3.80;99.90;;;;;;5023333;28;20494;-49
2020/12/13 00:19:54;;;;;;;70.20;38.17;;;3.80;99.90;;;;;;5008921;28;20491;-49
2020/12/13 00:22:21;;;;;;;71.07;37.93;;;3.80;99.90;;;;;;5008920;28;20519;-49
2020/12/13 00:24:49;;;;;;;71.20;39.07;;;3.70;99.90;;;;;;5008649;28;20519;-49
2020/12/13 00:27:17;;;;;;;61.80;36.13;;;3.80;99.90;;;;;;5009705;28;20530;-48
2020/12/13 00:29:44;;;;;;;68.13;37.20;;;3.70;99.90;;;;;;5017582;28;20535;-50
2020/12/13 00:32:11;;;;;;;64.17;36.43;;;3.70;99.90;;;;;;5028595;28;20503;-49
2020/12/13 00:34:39;;;;;;;70.70;37.53;;;3.70;99.90;;;;;;5015634;28;20593;-50
2020/12/13 00:37:07;;;;;;;65.87;37.67;;;3.70;99.90;;;;;;4989486;28;21057;-50
2020/12/13 00:39:38;;;;;;;64.90;36.73;;;3.70;99.90;;;;;;4998567;28;20553;-49
2020/12/13 00:42:06;;;;;;;69.13;35.27;;;3.70;99.90;;;;;;5008835;28;20538;-49
2020/12/13 00:44:34;;;;;;;69.47;38.20;;;3.70;99.90;;;;;;5003931;28;20552;-49
2020/12/13 00:47:01;;;;;;;66.77;36.27;;;3.70;99.90;;;;;;5023278;28;20477;-48
2020/12/13 00:49:29;;;;;;;63.83;36.50;;;3.80;99.90;;;;;;5021502;28;20952;-50
2020/12/13 00:52:01;;;;;;;64.63;37.53;;;3.80;99.90;;;;;;5013528;28;21046;-49
2020/12/13 00:54:30;;;;;;;71.33;37.13;;;3.70;99.90;;;;;;5008041;28;20820;-50
2020/12/13 00:56:58;;;;;;;67.33;38.07;;;3.70;99.90;;;;;;5025359;28;20960;-49
2020/12/13 00:59:26;;;;;;;72.70;38.27;;;3.70;99.90;;;;;;5010840;28;20955;-49
2020/12/13 01:01:53;;;;;;;70.53;38.03;;;3.70;99.90;;;;;;5008026;28;20593;-49
2020/12/13 01:04:21;;;;;;;68.53;37.17;;;3.70;99.90;;;;;;5008448;28;20545;-49
2020/12/13 01:06:49;;;;;;;68.60;36.10;;;3.70;99.90;;;;;;5008952;28;20472;-52
2020/12/13 01:09:16;;;;;;;74.80;39.50;;;3.70;99.90;;;;;;5008569;28;20487;-49
2020/12/13 01:11:44;;;;;;;68.50;37.13;;;3.70;99.90;;;;;;5028597;28;20550;-48
2020/12/13 01:14:12;;;;;;;72.63;39.00;;;3.70;99.90;;;;;;5013541;28;20904;-49
2020/12/13 01:16:39;;;;;;;71.93;37.67;;;3.70;99.90;;;;;;5015167;28;20484;-49
2020/12/13 01:19:07;;;;;;;70.57;39.70;;;3.70;99.90;;;;;;5014805;28;20467;-49
2020/12/13 01:21:34;;;;;;;71.70;37.37;;;3.70;99.90;;;;;;5014737;28;21086;-50
2020/12/13 01:24:01;;;;;;;68.57;37.73;;;3.70;99.90;;;;;;5034107;28;20529;-50
2020/12/13 01:26:29;;;;;;;67.93;37.87;;;3.70;99.90;;;;;;5034409;28;20960;-49
2020/12/13 01:28:57;;;;;;;72.10;38.43;;;3.70;99.90;;;;;;5022658;28;20874;-49
2020/12/13 01:31:25;;;;;;;67.13;37.67;;;3.70;99.90;;;;;;5014231;28;20873;-49
2020/12/13 01:33:54;;;;;;;71.97;37.33;;;3.70;99.90;;;;;;5015074;28;20516;-49
2020/12/13 01:36:23;;;;;;;77.50;40.50;;;3.70;99.90;;;;;;5014830;28;20486;-49
2020/12/13 01:38:52;;;;;;;74.23;38.77;;;3.70;99.90;;;;;;5018133;28;20509;-50
2020/12/13 01:41:21;;;;;;;74.23;37.13;;;3.70;99.90;;;;;;5014046;28;20474;-49
2020/12/13 01:43:58;;;;;;;73.30;37.67;;;3.70;99.90;;;;;;5014648;28;20487;-49
2020/12/13 01:46:26;;;;;;;75.93;38.27;;;3.70;99.90;;;;;;5014326;28;20481;-49
2020/12/13 01:49:00;;;;;;;81.17;39.40;;;3.70;99.90;;;;;;5014652;28;20473;-49
2020/12/13 01:51:45;;;;;;;77.80;40.00;;;3.70;99.90;;;;;;5014105;28;20563;-49
2020/12/13 01:54:14;;;;;;;82.60;39.30;;;3.70;99.90;;;;;;5016813;28;20486;-49
2020/12/13 01:56:46;;;;;;;76.97;38.47;;;3.60;99.90;;;;;;5014369;28;20511;-49
2020/12/13 01:59:18;;;;;;;81.47;40.13;;;3.60;99.90;;;;;;5014504;28;20572;-48
2020/12/13 02:01:55;;;;;;;82.87;40.53;;;3.70;99.90;;;;;;5013790;28;20488;-49
2020/12/13 02:04:24;;;;;;;79.27;39.03;;;3.70;99.90;;;;;;5035898;28;20500;-49
2020/12/13 02:06:53;;;;;;;82.33;41.13;;;3.70;99.90;;;;;;5030114;28;20532;-49
2020/12/13 02:09:22;;;;;;;87.20;40.93;;;3.70;99.90;;;;;;5032913;28;20502;-49
2020/12/13 02:11:50;;;;;;;76.67;39.13;;;3.70;99.90;;;;;;5034099;28;20815;-49
2020/12/13 02:14:19;;;;;;;80.50;39.80;;;3.70;99.90;;;;;;5034163;28;21075;-49
2020/12/13 02:16:49;;;;;;;76.33;38.67;;;3.70;99.90;;;;;;5033384;28;20505;-49
2020/12/13 02:19:16;;;;;;;81.93;39.30;;;3.70;99.90;;;;;;5030027;28;20476;-50
2020/12/13 02:21:46;;;;;;;80.70;40.13;;;3.70;99.90;;;;;;5031024;28;20534;-49
2020/12/13 02:24:15;;;;;;;76.93;40.10;;;3.70;99.90;;;;;;5037084;28;20506;-49
2020/12/13 02:26:44;;;;;;;82.93;39.97;;;3.70;99.90;;;;;;5028308;28;20489;-49
2020/12/13 02:29:12;;;;;;;83.13;40.23;;;3.70;99.90;;;;;;5030527;28;21070;-48
2020/12/13 02:31:40;;;;;;;77.90;38.33;;;3.60;99.90;;;;;;5030224;28;20481;-48
2020/12/13 02:34:08;;;;;;;78.20;39.23;;;3.70;99.90;;;;;;5031186;28;20987;-50
2020/12/13 02:36:36;;;;;;;83.13;38.70;;;3.70;99.90;;;;;;5030936;28;20475;-49
2020/12/13 02:39:06;;;;;;;80.50;38.33;;;3.70;99.90;;;;;;5031154;28;20532;-49
2020/12/13 02:41:34;;;;;;;80.40;40.10;;;3.80;99.90;;;;;;5030199;28;20485;-49
2020/12/13 02:44:02;;;;;;;80.17;40.00;;;3.70;99.90;;;;;;5031016;28;20468;-49
2020/12/13 02:46:29;;;;;;;83.90;39.67;;;3.70;99.90;;;;;;5028896;28;20470;-49
2020/12/13 02:48:57;;;;;;;82.80;41.10;;;3.80;99.90;;;;;;5030365;28;20540;-49
2020/12/13 02:51:24;;;;;;;83.97;39.87;;;3.70;99.90;;;;;;5029961;28;20478;-49
2020/12/13 02:53:52;;;;;;;82.77;38.97;;;3.70;99.90;;;;;;5027212;28;20491;-49
2020/12/13 02:56:20;;;;;;;90.20;38.93;;;3.70;99.90;;;;;;5030567;28;20539;-50
2020/12/13 02:58:48;;;;;;;89.07;40.00;;;3.80;99.90;;;;;;5030174;28;20479;-49
2020/12/13 03:01:16;;;;;;;87.80;39.93;;;3.70;99.90;;;;;;5033582;28;20481;-49
2020/12/13 03:03:43;;;;;;;85.30;40.00;;;3.80;99.90;;;;;;5019736;28;20472;-49
2020/12/13 03:06:11;;;;;;;84.27;39.07;;;3.70;99.90;;;;;;5027650;28;20535;-49
2020/12/13 03:08:39;;;;;;;90.63;40.80;;;3.70;99.90;;;;;;5021597;28;20476;-48
2020/12/13 03:11:06;;;;;;;92.00;40.93;;;3.80;99.90;;;;;;5029649;28;20482;-49
2020/12/13 03:13:33;;;;;;;83.57;38.10;;;3.80;99.90;;;;;;5030432;28;20483;-49
2020/12/13 03:16:01;;;;;;;92.87;39.43;;;3.80;99.90;;;;;;5030051;28;20478;-49
2020/12/13 03:18:29;;;;;;;95.50;41.97;;;3.70;99.90;;;;;;5030085;28;20542;-49
2020/12/13 03:20:56;;;;;;;88.10;39.27;;;3.80;99.90;;;;;;5029773;28;20862;-49
2020/12/13 03:23:24;;;;;;;95.90;40.47;;;4.00;99.90;;;;;;5027977;28;20554;-50
2020/12/13 03:25:52;;;;;;;92.97;41.13;;;3.90;99.90;;;;;;5010078;28;20486;-49
2020/12/13 03:28:19;;;;;;;83.57;40.23;;;3.80;99.90;;;;;;5009946;28;20878;-49
2020/12/13 03:30:47;;;;;;;93.47;39.20;;;3.80;99.90;;;;;;5026449;28;20493;-50
2020/12/13 03:33:15;;;;;;;89.23;38.07;;;3.80;99.90;;;;;;5030032;28;20483;-49
2020/12/13 03:35:43;;;;;;;89.87;38.27;;;3.80;99.90;;;;;;5029612;28;20543;-49
2020/12/13 03:38:10;;;;;;;87.07;38.60;;;3.80;99.90;;;;;;5029765;28;20470;-49
2020/12/13 03:40:38;;;;;;;85.50;37.20;;;3.80;99.90;;;;;;5028886;28;20493;-49
2020/12/13 03:43:05;;;;;;;85.73;38.47;;;3.80;99.90;;;;;;5029360;28;20487;-49
2020/12/13 03:45:32;;;;;;;87.80;38.33;;;3.80;99.90;;;;;;5029289;28;20506;-49
2020/12/13 03:48:00;;;;;;;88.07;38.87;;;3.80;99.90;;;;;;5029755;28;20483;-49
2020/12/13 03:50:38;;;;;;;87.90;38.87;;;3.80;99.90;;;;;;5028550;28;20481;-51
2020/12/13 03:53:08;;;;;;;78.13;35.90;;;3.80;99.90;;;;;;5028833;28;20478;-49
2020/12/13 03:55:36;;;;;;;88.17;38.20;;;3.80;99.90;;;;;;5029175;28;20737;-49
2020/12/13 03:58:04;;;;;;;83.40;37.10;;;3.80;99.90;;;;;;5029795;28;20790;-50
2020/12/13 04:00:33;;;;;;;81.90;37.27;;;3.80;99.90;;;;;;5021274;28;20472;-49
2020/12/13 04:03:02;;;;;;;85.63;37.20;;;3.80;99.90;;;;;;5027495;28;20502;-49
2020/12/13 04:05:31;;;;;;;87.53;39.37;;;3.80;99.90;;;;;;5026968;28;20477;-48
2020/12/13 04:07:59;;;;;;;93.93;38.73;;;3.70;99.90;;;;;;5029548;28;20479;-49
2020/12/13 04:10:27;;;;;;;92.37;38.27;;;3.90;99.90;;;;;;5028276;28;20973;-51
2020/12/13 04:12:54;;;;;;;89.33;37.73;;;3.80;99.90;;;;;;5013785;28;20856;-49
2020/12/13 04:15:22;;;;;;;90.73;38.40;;;3.80;99.90;;;;;;5008787;28;20813;-49
2020/12/13 04:17:52;;;;;;;85.13;37.27;;;3.70;99.90;;;;;;5009468;28;20475;-50
2020/12/13 04:20:19;;;;;;;90.83;37.17;;;3.70;99.90;;;;;;5008931;28;20480;-49
2020/12/13 04:22:48;;;;;;;85.83;36.80;;;3.70;99.90;;;;;;5009447;28;21070;-49
2020/12/13 04:25:15;;;;;;;86.63;38.07;;;3.70;99.90;;;;;;5012959;28;20481;-49
2020/12/13 04:27:43;;;;;;;92.63;36.87;;;3.70;99.90;;;;;;5029131;28;20783;-50
2020/12/13 04:30:10;;;;;;;87.67;38.17;;;3.80;99.90;;;;;;5028723;28;20531;-49
2020/12/13 04:32:37;;;;;;;87.67;37.73;;;3.80;99.90;;;;;;5028733;28;20492;-49
2020/12/13 04:35:07;;;;;;;95.30;39.27;;;3.80;99.90;;;;;;4995481;28;20477;-50
2020/12/13 04:37:35;;;;;;;98.00;39.43;;;3.80;99.90;;;;;;4991647;28;20476;-50
2020/12/13 04:40:05;;;;;;;86.63;38.17;;;3.80;99.90;;;;;;5010200;28;20471;-49
2020/12/13 04:42:36;;;;;;;92.70;37.27;;;3.80;99.90;;;;;;5008743;28;20550;-49
2020/12/13 04:45:05;;;;;;;92.23;37.90;;;3.80;99.90;;;;;;5008817;28;20492;-49
2020/12/13 04:47:33;;;;;;;88.23;37.77;;;3.80;99.90;;;;;;5009294;28;20472;-49
2020/12/13 04:50:04;;;;;;;86.17;36.67;;;3.80;99.90;;;;;;5008991;28;20539;-48
2020/12/13 04:52:32;;;;;;;90.03;39.03;;;3.80;99.90;;;;;;5008529;28;20921;-48
2020/12/13 04:54:59;;;;;;;93.07;37.27;;;3.80;99.90;;;;;;5008755;28;21051;-49
2020/12/13 04:57:27;;;;;;;97.00;39.27;;;3.80;99.90;;;;;;5021329;28;20499;-49
2020/12/13 04:59:56;;;;;;;91.03;37.50;;;3.80;99.90;;;;;;5027192;28;20475;-49
2020/12/13 05:02:24;;;;;;;94.23;37.40;;;3.90;99.90;;;;;;5024405;28;20537;-49
2020/12/13 05:04:53;;;;;;;92.07;36.83;;;3.90;99.90;;;;;;5017063;28;20487;-50
2020/12/13 05:07:21;;;;;;;88.67;37.83;;;3.90;99.90;;;;;;5019265;28;20479;-49
2020/12/13 05:09:52;;;;;;;88.90;37.67;;;3.90;99.90;;;;;;5017122;28;20905;-49
2020/12/13 05:12:24;;;;;;;90.47;36.70;;;3.80;99.90;;;;;;5017315;28;20540;-49
2020/12/13 05:14:52;;;;;;;90.17;38.87;;;3.80;99.90;;;;;;5017683;28;20497;-49
2020/12/13 05:17:19;;;;;;;86.13;37.53;;;3.80;99.90;;;;;;5007763;28;20570;-49
2020/12/13 05:19:50;;;;;;;84.03;35.57;;;3.80;99.90;;;;;;5009796;28;20570;-49
2020/12/13 05:22:21;;;;;;;89.90;36.37;;;3.80;99.90;;;;;;5008831;28;20885;-50
2020/12/13 05:24:49;;;;;;;88.80;36.80;;;3.80;99.90;;;;;;5003339;28;20951;-51
2020/12/13 05:27:22;;;;;;;87.13;37.07;;;3.80;99.90;;;;;;5008543;28;20477;-50
2020/12/13 05:29:52;;;;;;;82.33;34.10;;;3.80;99.90;;;;;;5002191;28;20484;-50
2020/12/13 05:32:23;;;;;;;86.93;36.00;;;3.80;99.90;;;;;;5005410;28;21004;-50
2020/12/13 05:34:52;;;;;;;90.43;34.73;;;3.80;99.90;;;;;;5007669;28;20499;-49
2020/12/13 05:37:19;;;;;;;74.37;33.40;;;3.80;99.90;;;;;;5008363;28;20484;-48
2020/12/13 05:39:52;;;;;;;79.30;34.60;;;3.80;99.90;;;;;;5007873;28;20553;-49
2020/12/13 05:42:35;;;;;;;85.23;35.90;;;3.80;99.90;;;;;;5008956;28;21073;-49
2020/12/13 05:45:24;;;;;;;80.63;34.10;;;3.80;99.90;;;;;;5027886;28;20483;-49
2020/12/13 05:51:11;;;;;;;76.97;35.17;;;3.80;99.90;;;;;;5016960;28;20471;-49
2020/12/13 05:53:42;;;;;;;84.83;34.07;;;3.80;99.90;;;;;;5026922;28;20482;-49
2020/12/13 05:56:21;;;;;;;79.97;34.13;;;3.80;99.90;;;;;;5016677;28;21007;-48
2020/12/13 05:58:51;;;;;;;82.37;34.07;;;3.80;99.90;;;;;;5028986;28;20470;-50
2020/12/13 06:01:23;;;;;;;77.00;34.33;;;3.80;99.90;;;;;;5031241;28;20471;-50
2020/12/13 06:03:53;;;;;;;82.07;35.33;;;3.80;99.90;;;;;;5017132;28;20501;-49
2020/12/13 06:06:24;;;;;;;89.60;36.03;;;3.70;99.90;;;;;;5011898;28;20532;-50
2020/12/13 06:09:07;;;;;;;85.80;36.73;;;3.80;99.90;;;;;;5011567;28;20485;-49
2020/12/13 06:11:39;;;;;;;81.83;33.97;;;3.80;99.90;;;;;;5014816;28;20509;-49
2020/12/13 06:14:21;;;;;;;86.07;35.27;;;3.70;99.90;;;;;;5011581;28;20478;-50
2020/12/13 06:16:50;;;;;;;83.50;35.20;;;3.80;99.90;;;;;;5011356;28;21049;-50
2020/12/13 06:19:22;;;;;;;85.60;34.50;;;3.80;99.90;;;;;;5011761;28;20568;-49
2020/12/13 06:21:51;;;;;;;86.20;35.10;;;3.90;99.90;;;;;;5011115;28;20490;-49
2020/12/13 06:24:19;;;;;;;84.50;34.97;;;3.90;99.90;;;;;;5011225;28;20467;-49
2020/12/13 06:26:47;;;;;;;87.73;36.10;;;3.90;99.90;;;;;;4996524;28;20531;-48
2020/12/13 06:29:15;;;;;;;81.87;34.13;;;3.90;99.90;;;;;;4991814;28;20516;-49
2020/12/13 06:31:42;;;;;;;75.43;34.07;;;3.90;99.90;;;;;;5005068;28;20474;-50
2020/12/13 06:34:09;;;;;;;84.67;34.40;;;3.80;99.90;;;;;;5010942;28;20471;-49
2020/12/13 06:36:40;;;;;;;86.80;35.57;;;3.90;99.90;;;;;;5010630;28;20481;-49
2020/12/13 06:39:12;;;;;;;84.53;34.63;;;3.90;99.90;;;;;;5010943;28;20912;-48
2020/12/13 06:41:42;;;;;;;84.50;33.20;;;3.90;99.90;;;;;;5010607;28;20480;-49
2020/12/13 06:44:11;;;;;;;83.97;35.67;;;3.90;99.90;;;;;;5010935;28;20503;-50
2020/12/13 06:46:42;;;;;;;89.37;35.67;;;3.80;99.90;;;;;;5010773;28;20498;-49
2020/12/13 06:49:11;;;;;;;86.73;34.70;;;3.80;99.90;;;;;;5011078;28;20472;-49
2020/12/13 06:51:42;;;;;;;81.23;33.97;;;3.80;99.90;;;;;;5010293;28;20898;-49
2020/12/13 06:54:11;;;;;;;85.23;35.60;;;3.90;99.90;;;;;;5019412;28;20536;-50
2020/12/13 06:56:40;;;;;;;86.97;35.43;;;3.90;99.90;;;;;;5026003;28;20474;-51
2020/12/13 06:59:09;;;;;;;87.60;35.33;;;3.90;99.90;;;;;;5013548;28;20541;-49
2020/12/13 07:01:39;;;;;;;85.73;33.33;;;4.00;99.90;;;;;;5010326;28;20513;-48
2020/12/13 07:04:34;;;;;;;76.17;32.90;;;3.90;99.90;;;;;;5010094;28;20486;-49
2020/12/13 07:07:06;;;;;;;75.17;31.87;;;3.90;99.90;;;;;;5011972;28;20966;-49
2020/12/13 07:09:34;;;;;;;82.93;33.77;;;3.90;99.90;;;;;;5008753;28;21008;-49
2020/12/13 07:12:03;;;;;;;82.23;32.47;;;3.90;99.90;;;;;;5008271;28;20468;-48
2020/12/13 07:14:33;;;;;;;82.70;33.57;;;3.90;99.90;;;;;;5008598;28;20478;-49
2020/12/13 07:17:03;;;;;;;82.93;32.50;;;3.90;99.90;;;;;;5008421;28;20974;-50
2020/12/13 07:19:33;;;;;;;83.93;33.93;;;3.90;99.90;;;;;;5007052;28;20482;-50
2020/12/13 07:22:05;;;;;;;82.27;32.43;;;3.90;99.90;;;;;;5008217;28;20538;-49
2020/12/13 07:24:33;;;;;;;82.20;34.43;;;3.90;99.90;;;;;;5008176;28;20532;-48
2020/12/13 07:27:01;;;;;;;79.00;32.00;;;3.90;99.90;;;;;;5006066;28;20487;-48
2020/12/13 07:29:31;;;;;;;78.30;32.40;;;3.90;99.90;;;;;;5006124;28;20472;-50
2020/12/13 07:31:59;;;;;;;83.03;33.13;;;3.90;99.90;;;;;;5007783;28;20536;-49
2020/12/13 07:34:27;;;;;;;76.03;32.80;;;3.90;99.90;;;;;;5008064;28;20571;-49
2020/12/13 07:36:54;;;;;;;75.73;31.83;;;3.90;99.90;;;;;;5007478;28;20553;-48
2020/12/13 07:39:23;;;;;;;78.40;32.03;;;3.90;99.90;;;;;;5007968;28;20476;-48
2020/12/13 07:41:50;;;;;;;79.30;32.93;;;3.90;99.90;;;;;;5020839;28;20513;-49
2020/12/13 07:44:30;;;;;;;87.33;34.50;;;3.90;99.90;;;;;;5027388;28;20483;-49
2020/12/13 07:46:58;;;;;;;87.90;35.80;;;3.90;99.90;;;;;;5027341;28;20481;-49
2020/12/13 07:49:26;;;;;;;84.63;34.63;;;3.90;99.90;;;;;;5014275;28;20487;-49
2020/12/13 07:51:56;;;;;;;83.73;34.23;;;3.90;99.90;;;;;;5005308;28;20485;-48
2020/12/13 07:54:26;;;;;;;83.10;33.77;;;3.90;99.90;;;;;;5005850;28;20541;-48
2020/12/13 07:56:56;;;;;;;82.53;32.97;;;4.00;99.90;;;;;;5007855;28;20821;-49
2020/12/13 07:59:25;;;;;;;80.13;32.77;;;3.90;99.90;;;;;;5007458;28;20561;-49
2020/12/13 08:01:54;;;;;;;76.73;31.73;;;3.90;99.90;;;;;;5009356;28;20479;-49
2020/12/13 08:04:34;;;;;;;72.60;30.53;;;3.90;99.90;;;;;;5009331;28;20482;-50
2020/12/13 08:07:03;;;;;;;81.97;33.07;;;3.90;99.90;;;;;;5009391;28;20538;-48
2020/12/13 08:09:32;;;;;;;83.20;33.97;;;3.90;99.90;;;;;;5009003;28;20739;-49
2020/12/13 08:11:59;;;;;;;76.13;32.27;;;4.00;99.90;;;;;;5008858;28;20479;-50
2020/12/13 08:14:27;;;;;;;78.50;32.13;;;4.00;99.90;;;;;;5009060;28;20472;-48
2020/12/13 08:16:56;;;;;;;83.63;32.67;;;3.90;99.90;;;;;;5008397;28;20484;-49
2020/12/13 08:19:28;;;;;;;79.43;32.43;;;3.90;99.90;;;;;;5009334;28;20490;-49
2020/12/13 08:22:02;;;;;;;82.10;34.50;;;4.00;99.90;;;;;;5008820;28;20492;-50
2020/12/13 08:24:31;;;;;;;78.17;32.67;;;4.00;99.90;;;;;;5009272;28;20980;-48
2020/12/13 08:26:59;;;;;;;78.13;31.90;;;4.10;99.90;;;;;;5005010;28;20503;-49
2020/12/13 08:29:30;;;;;;;88.63;33.20;;;4.00;99.90;;;;;;4989283;28;21041;-50
2020/12/13 08:32:00;;;;;;;83.90;34.07;;;4.00;99.90;;;;;;4988956;28;20469;-49
2020/12/13 08:34:30;;;;;;;80.97;31.73;;;4.20;99.90;;;;;;4992485;28;22650;-48
2020/12/13 08:36:59;;;;;;;84.10;32.50;;;4.20;99.90;;;;;;5007193;28;20477;-48
2020/12/13 08:39:29;;;;;;;85.57;32.83;;;4.30;99.90;;;;;;5007439;28;20926;-49
2020/12/13 08:41:59;;;;;;;80.83;32.23;;;4.30;99.90;;;;;;5008255;28;20991;-49
2020/12/13 08:44:34;;;;;;;86.53;31.73;;;4.20;99.90;;;;;;5004046;28;20539;-49
2020/12/13 08:47:03;;;;;;;78.00;30.83;;;4.10;99.90;;;;;;4998131;28;20537;-49
2020/12/13 08:49:33;;;;;;;84.73;33.07;;;4.10;99.90;;;;;;5009532;28;20495;-49
2020/12/13 08:52:15;;;;;;;85.77;32.93;;;4.10;99.90;;;;;;5007475;28;20529;-49
2020/12/13 08:54:59;;;;;;;84.97;31.37;;;4.10;99.90;;;;;;5000553;28;20491;-49
2020/12/13 08:57:32;;;;;;;86.50;32.97;;;4.10;99.90;;;;;;5010119;28;20475;-48
2020/12/13 09:00:04;;;;;;;86.43;30.30;;;4.10;99.90;;;;;;5004712;28;20481;-48
2020/12/13 09:02:56;;;;;;;98.13;31.40;;;4.40;99.90;;;;;;4999105;28;20992;-49
2020/12/13 09:05:29;;;;;;;99.60;34.40;;;4.50;99.90;;;;;;5012971;28;20487;-49
2020/12/13 09:07:58;;;;;;;96.67;33.47;;;4.40;99.90;;;;;;5008619;28;20479;-49
2020/12/13 09:10:28;;;;;;;104.47;33.27;;;4.20;99.90;;;;;;5007898;28;20483;-49
2020/12/13 09:12:56;;;;;;;91.80;32.27;;;4.20;99.90;;;;;;5022890;28;20535;-49
2020/12/13 09:15:24;;;;;;;95.67;33.27;;;4.10;99.90;;;;;;5028139;28;20504;-49
2020/12/13 09:17:54;;;;;;;96.37;34.17;;;4.10;99.90;;;;;;5000378;28;20487;-48
2020/12/13 09:20:26;;;;;;;94.77;32.73;;;4.20;99.90;;;;;;4986713;28;20568;-49
2020/12/13 09:23:13;;;;;;;91.07;33.13;;;4.10;99.90;;;;;;5006378;28;20495;-49
2020/12/13 09:25:42;;;;;;;83.67;31.60;;;4.10;99.90;;;;;;5020026;28;20492;-49
2020/12/13 09:28:12;;;;;;;90.70;32.20;;;4.20;99.90;;;;;;5029412;28;20487;-49
2020/12/13 09:30:41;;;;;;;89.27;32.23;;;4.20;99.90;;;;;;5020184;28;20570;-49
2020/12/13 09:33:09;;;;;;;81.87;31.33;;;4.20;99.90;;;;;;5010266;28;20538;-48
2020/12/13 09:35:38;;;;;;;84.83;31.37;;;4.20;99.90;;;;;;5007140;28;21054;-49
2020/12/13 09:38:07;;;;;;;88.43;32.47;;;4.20;99.90;;;;;;5004820;28;20571;-49
2020/12/13 09:40:35;;;;;;;86.57;30.43;;;4.20;99.90;;;;;;5006464;28;20318;-48
2020/12/13 09:43:03;;;;;;;92.57;32.57;;;4.40;99.90;;;;;;5008259;28;20934;-48
2020/12/13 09:45:32;;;;;;;96.73;33.73;;;4.30;99.90;;;;;;5010009;28;21046;-49
2020/12/13 09:47:59;;;;;;;97.33;32.23;;;4.30;99.90;;;;;;5009333;28;20483;-49
2020/12/13 09:50:29;;;;;;;83.53;31.97;;;4.20;99.90;;;;;;5007008;28;20483;-49
2020/12/13 09:52:57;;;;;;;87.13;31.47;;;4.20;99.90;;;;;;5008878;28;21011;-49
2020/12/13 09:55:24;;;;;;;84.50;32.87;;;4.20;99.90;;;;;;5003613;28;20522;-50
2020/12/13 09:57:53;;;;;;;84.93;31.23;;;4.20;99.90;;;;;;5000608;28;20977;-50
2020/12/13 10:00:20;;;;;;;79.80;30.17;;;4.20;99.90;;;;;;4996320;28;20506;-49
2020/12/13 10:02:49;;;;;;;73.67;30.17;;;4.30;99.90;;;;;;4997987;28;20484;-49
2020/12/13 10:05:22;;;;;;;80.37;29.57;;;4.30;99.90;;;;;;5005854;28;20478;-49
2020/12/13 10:10:41;;;;;;;84.43;28.83;;;4.50;99.90;;;;;;4925303;28;20491;-48
2020/12/13 10:13:08;;;;;;;82.63;29.33;;;4.70;99.90;;;;;;5015166;28;20509;-49
2020/12/13 10:15:36;;;;;;;81.50;30.27;;;4.70;99.90;;;;;;5005583;28;20501;-49
2020/12/13 10:18:05;;;;;;;75.13;30.47;;;4.50;99.90;;;;;;4998272;28;20924;-48
2020/12/13 10:20:33;;;;;;;68.67;28.17;;;4.50;99.90;;;;;;5013091;28;20491;-53
2020/12/13 10:23:01;;;;;;;71.00;28.47;;;4.40;99.90;;;;;;5021010;28;20595;-49
2020/12/13 10:25:29;;;;;;;66.10;28.87;;;4.40;99.90;;;;;;5022012;28;20899;-49
2020/12/13 10:27:57;;;;;;;64.07;28.00;;;4.40;99.90;;;;;;5017657;28;20496;-50
2020/12/13 10:30:28;;;;;;;67.97;26.97;;;4.50;99.90;;;;;;5024339;28;20506;-51
2020/12/13 10:32:57;;;;;;;58.83;26.33;;;4.50;99.90;;;;;;5030611;28;20491;-48
2020/12/13 10:35:26;;;;;;;66.37;27.90;;;4.50;99.90;;;;;;5007540;28;21108;-49
2020/12/13 10:37:53;;;;;;;63.13;28.23;;;4.50;99.90;;;;;;5000844;28;20329;-49
2020/12/13 10:40:21;;;;;;;67.07;29.30;;;4.50;99.90;;;;;;5001140;28;20259;-48
2020/12/13 10:42:48;;;;;;;62.00;28.50;;;4.50;99.90;;;;;;5004949;28;20542;-50
2020/12/13 10:45:16;;;;;;;60.13;27.50;;;4.50;99.90;;;;;;5010033;28;21015;-49
2020/12/13 10:47:47;;;;;;;61.73;27.37;;;4.50;99.90;;;;;;5015434;28;20487;-49
2020/12/13 10:50:14;;;;;;;62.30;27.87;;;4.50;99.90;;;;;;5023511;28;20892;-49
2020/12/13 10:52:43;;;;;;;58.60;28.00;;;4.50;99.90;;;;;;5022522;28;20252;-48
2020/12/13 10:55:10;;;;;;;61.90;27.77;;;4.50;99.90;;;;;;5024406;28;20482;-49
2020/12/13 10:57:42;;;;;;;64.33;27.73;;;4.60;99.90;;;;;;5017645;28;20566;-49
2020/12/13 11:00:10;;;;;;;63.27;27.47;;;4.60;99.90;;;;;;5018366;28;20298;-48
2020/12/13 11:02:37;;;;;;;56.30;26.90;;;4.60;99.90;;;;;;5008781;28;20486;-48
2020/12/13 11:05:05;;;;;;;58.63;26.43;;;4.60;99.90;;;;;;5013718;28;20825;-48
2020/12/13 11:07:32;;;;;;;61.93;28.00;;;4.60;99.90;;;;;;5010401;28;20567;-48
2020/12/13 11:10:00;;;;;;;66.53;27.97;;;4.70;99.90;;;;;;5007720;28;20481;-49
2020/12/13 11:12:27;;;;;;;62.03;27.97;;;5.00;99.90;;;;;;5009019;28;20259;-49
2020/12/13 11:14:55;;;;;;;54.83;26.67;;;4.80;99.90;;;;;;5010422;28;20889;-48
2020/12/13 11:17:22;;;;;;;60.93;27.33;;;5.00;99.90;;;;;;5007360;28;20484;-50
2020/12/13 11:19:50;;;;;;;59.97;28.20;;;4.90;99.90;;;;;;4999847;28;20488;-48
2020/12/13 11:22:17;;;;;;;62.50;29.43;;;4.80;99.90;;;;;;5009294;28;20538;-49
2020/12/13 11:24:45;;;;;;;56.70;28.20;;;4.80;99.90;;;;;;5010066;28;20480;-48
2020/12/13 11:27:14;;;;;;;62.57;29.33;;;4.80;99.90;;;;;;5010335;28;20849;-49
2020/12/13 11:29:41;;;;;;;60.77;27.97;;;4.90;99.90;;;;;;5006993;28;20310;-49
2020/12/13 11:32:08;;;;;;;61.40;27.17;;;5.00;99.90;;;;;;4995557;28;20499;-48
2020/12/13 11:34:36;;;;;;;58.17;26.57;;;5.00;99.90;;;;;;5022339;28;20558;-48
2020/12/13 11:37:04;;;;;;;55.43;27.73;;;4.90;99.90;;;;;;5005993;28;21008;-49
2020/12/13 11:39:32;;;;;;;57.90;27.53;;;4.90;99.90;;;;;;5011541;28;20472;-49
2020/12/13 11:41:59;;;;;;;56.63;26.73;;;5.10;99.90;;;;;;5009559;28;20289;-48
2020/12/13 11:44:28;;;;;;;57.47;27.13;;;5.10;99.90;;;;;;5000270;28;20500;-48
2020/12/13 11:46:56;;;;;;;67.17;29.73;;;5.50;99.90;;;;;;5001455;28;20520;-49
2020/12/13 11:49:23;;;;;;;67.00;29.60;;;5.60;99.90;;;;;;5011414;28;20267;-48
2020/12/13 11:51:50;;;;;;;66.37;29.57;;;5.60;99.90;;;;;;5029270;28;20236;-48
2020/12/13 11:54:18;;;;;;;60.33;29.10;;;5.60;99.90;;;;;;5029729;28;20233;-48
2020/12/13 11:56:47;;;;;;;66.90;31.27;;;5.50;99.90;;;;;;5029667;28;20663;-49
2020/12/13 11:59:14;;;;;;;66.40;30.30;;;5.40;99.90;;;;;;5016268;28;20303;-49
2020/12/13 12:01:44;;;;;;;63.20;29.03;;;5.40;99.90;;;;;;5006278;28;20974;-49
2020/12/13 12:04:12;;;;;;;64.53;27.40;;;5.20;99.90;;;;;;5009299;28;20263;-49
2020/12/13 12:06:43;;;;;;;55.37;26.83;;;5.30;99.90;;;;;;5009213;28;20319;-48
2020/12/13 12:09:11;;;;;;;54.27;25.47;;;5.30;99.90;;;;;;5007841;28;20480;-48
2020/12/13 12:11:38;;;;;;;67.33;28.57;;;5.40;99.90;;;;;;5000324;28;20479;-49
2020/12/13 12:14:09;;;;;;;69.23;30.47;;;5.80;99.90;;;;;;5005294;28;20257;-48
2020/12/13 12:16:40;;;;;;;66.83;31.37;;;5.80;99.90;;;;;;5007448;28;20244;-48
2020/12/13 12:19:09;;;;;;;66.70;29.63;;;5.60;99.90;;;;;;5020407;28;20479;-49
2020/12/13 12:21:43;;;;;;;58.43;28.70;;;5.50;99.90;;;;;;5007386;28;20236;-49
2020/12/13 12:24:13;;;;;;;56.60;27.90;;;5.40;99.90;;;;;;5007309;28;20244;-53
2020/12/13 12:26:40;;;;;;;66.67;28.57;;;5.30;99.90;;;;;;5005524;28;20476;-48
2020/12/13 12:29:08;;;;;;;75.53;32.60;;;5.90;99.90;;;;;;5003638;28;20320;-50
2020/12/13 12:31:37;;;;;;;69.43;31.67;;;6.50;99.90;;;;;;5002996;28;20475;-50
2020/12/13 12:34:05;;;;;;;57.90;28.83;;;6.40;99.90;;;;;;5004110;28;20294;-50
2020/12/13 12:36:33;;;;;;;58.10;28.40;;;6.20;99.90;;;;;;5003398;28;20625;-50
2020/12/13 12:39:00;;;;;;;59.60;28.93;;;6.00;99.90;;;;;;5002682;28;20268;-48
2020/12/13 12:41:28;;;;;;;67.17;31.13;;;5.80;99.90;;;;;;5005298;28;20278;-49
2020/12/13 12:43:55;;;;;;;57.00;27.77;;;6.10;99.90;;;;;;5002322;28;20627;-49
2020/12/13 12:46:23;;;;;;;56.00;27.97;;;6.10;99.90;;;;;;5005138;28;20233;-49
2020/12/13 12:48:50;;;;;;;55.73;27.63;;;6.00;99.90;;;;;;4999002;28;20241;-49
2020/12/13 12:51:19;;;;;;;63.67;32.63;;;6.10;99.90;;;;;;4995143;28;20240;-48